sensor_id;sensor_type;location;lat;lon;timestamp;temperature;humidity
75164;HTU21D;63746;45.402;37.922;2023-08-01T00:00:17;25.66;56.92
75164;HTU21D;63746;45.402;37.922;2023-08-01T00:02:44;25.65;56.94
75164;HTU21D;63746;45.402;37.922;2023-08-01T00:05:11;25.65;56.96
75164;HTU21D;63746;45.402;37.922;2023-08-01T00:07:37;25.62;56.96
75164;HTU21D;63746;45.402;37.922;2023-08-01T00:10:03;25.61;56.97
75164;HTU21D;63746;45.402;37.922;2023-08-01T00:12:29;25.60;56.99
75164;HTU21D;63746;45.402;37.922;2023-08-01T00:14:55;25.58;57.00
75164;HTU21D;63746;45.402;37.922;2023-08-01T00:17:21;25.57;57.00
75164;HTU21D;63746;45.402;37.922;2023-08-01T00:19:47;25.54;57.00
75164;HTU21D;63746;45.402;37.922;2023-08-01T00:22:13;25.54;57.01
75164;HTU21D;63746;45.402;37.922;2023-08-01T00:24:39;25.52;57.03
75164;HTU21D;63746;45.402;37.922;2023-08-01T00:27:06;25.51;57.02
75164;HTU21D;63746;45.402;37.922;2023-08-01T00:29:50;25.48;57.04
75164;HTU21D;63746;45.402;37.922;2023-08-01T00:32:17;25.45;57.04
75164;HTU21D;63746;45.402;37.922;2023-08-01T00:34:43;25.43;57.05
75164;HTU21D;63746;45.402;37.922;2023-08-01T00:37:09;25.40;57.06
75164;HTU21D;63746;45.402;37.922;2023-08-01T00:39:35;25.37;57.11
75164;HTU21D;63746;45.402;37.922;2023-08-01T00:42:01;25.35;57.13
75164;HTU21D;63746;45.402;37.922;2023-08-01T00:44:27;25.33;57.16
75164;HTU21D;63746;45.402;37.922;2023-08-01T00:46:53;25.31;57.17
75164;HTU21D;63746;45.402;37.922;2023-08-01T00:49:19;25.28;57.19
75164;HTU21D;63746;45.402;37.922;2023-08-01T00:51:46;25.27;57.20
75164;HTU21D;63746;45.402;37.922;2023-08-01T00:54:14;25.24;57.23
75164;HTU21D;63746;45.402;37.922;2023-08-01T00:56:40;25.23;57.24
75164;HTU21D;63746;45.402;37.922;2023-08-01T00:59:06;25.21;57.25
75164;HTU21D;63746;45.402;37.922;2023-08-01T01:01:32;25.19;57.28
75164;HTU21D;63746;45.402;37.922;2023-08-01T01:03:58;25.18;57.30
75164;HTU21D;63746;45.402;37.922;2023-08-01T01:06:31;25.16;57.38
75164;HTU21D;63746;45.402;37.922;2023-08-01T01:08:58;25.14;57.32
75164;HTU21D;63746;45.402;37.922;2023-08-01T01:11:24;25.14;57.34
75164;HTU21D;63746;45.402;37.922;2023-08-01T01:13:50;25.12;57.34
75164;HTU21D;63746;45.402;37.922;2023-08-01T01:16:19;25.12;57.35
75164;HTU21D;63746;45.402;37.922;2023-08-01T01:18:45;25.08;57.38
75164;HTU21D;63746;45.402;37.922;2023-08-01T01:21:23;25.08;57.61
75164;HTU21D;63746;45.402;37.922;2023-08-01T01:23:50;25.07;57.40
75164;HTU21D;63746;45.402;37.922;2023-08-01T01:26:17;25.05;57.39
75164;HTU21D;63746;45.402;37.922;2023-08-01T01:28:51;25.04;57.48
75164;HTU21D;63746;45.402;37.922;2023-08-01T01:31:17;25.03;57.40
75164;HTU21D;63746;45.402;37.922;2023-08-01T01:33:43;25.01;57.40
75164;HTU21D;63746;45.402;37.922;2023-08-01T01:36:09;24.99;57.40
75164;HTU21D;63746;45.402;37.922;2023-08-01T01:38:35;24.98;57.41
75164;HTU21D;63746;45.402;37.922;2023-08-01T01:41:02;24.97;57.42
75164;HTU21D;63746;45.402;37.922;2023-08-01T01:43:28;24.93;57.44
75164;HTU21D;63746;45.402;37.922;2023-08-01T01:45:54;24.92;57.44
75164;HTU21D;63746;45.402;37.922;2023-08-01T01:48:19;24.91;57.44
75164;HTU21D;63746;45.402;37.922;2023-08-01T01:50:45;24.87;57.45
75164;HTU21D;63746;45.402;37.922;2023-08-01T01:53:11;24.87;57.45
75164;HTU21D;63746;45.402;37.922;2023-08-01T01:55:37;24.84;57.44
75164;HTU21D;63746;45.402;37.922;2023-08-01T01:58:04;24.82;57.45
75164;HTU21D;63746;45.402;37.922;2023-08-01T02:00:30;24.79;57.48
75164;HTU21D;63746;45.402;37.922;2023-08-01T02:02:56;24.78;57.45
75164;HTU21D;63746;45.402;37.922;2023-08-01T02:05:23;24.76;57.45
75164;HTU21D;63746;45.402;37.922;2023-08-01T02:07:48;24.73;57.45
75164;HTU21D;63746;45.402;37.922;2023-08-01T02:10:15;24.69;57.45
75164;HTU21D;63746;45.402;37.922;2023-08-01T02:12:41;24.66;57.47
75164;HTU21D;63746;45.402;37.922;2023-08-01T02:15:07;24.64;57.48
75164;HTU21D;63746;45.402;37.922;2023-08-01T02:17:33;24.61;57.48
75164;HTU21D;63746;45.402;37.922;2023-08-01T02:19:59;24.57;57.51
75164;HTU21D;63746;45.402;37.922;2023-08-01T02:22:25;24.55;57.53
75164;HTU21D;63746;45.402;37.922;2023-08-01T02:24:52;24.50;57.56
75164;HTU21D;63746;45.402;37.922;2023-08-01T02:27:19;24.48;57.59
75164;HTU21D;63746;45.402;37.922;2023-08-01T02:29:45;24.46;57.60
75164;HTU21D;63746;45.402;37.922;2023-08-01T02:32:11;24.44;57.61
75164;HTU21D;63746;45.402;37.922;2023-08-01T02:34:37;24.42;57.62
75164;HTU21D;63746;45.402;37.922;2023-08-01T02:37:03;24.43;57.63
75164;HTU21D;63746;45.402;37.922;2023-08-01T02:39:29;24.42;57.61
75164;HTU21D;63746;45.402;37.922;2023-08-01T02:41:55;24.40;57.63
75164;HTU21D;63746;45.402;37.922;2023-08-01T02:44:21;24.39;57.64
75164;HTU21D;63746;45.402;37.922;2023-08-01T02:46:48;24.38;57.64
75164;HTU21D;63746;45.402;37.922;2023-08-01T02:49:14;24.38;57.62
75164;HTU21D;63746;45.402;37.922;2023-08-01T02:51:40;24.36;57.59
75164;HTU21D;63746;45.402;37.922;2023-08-01T02:54:06;24.33;57.61
75164;HTU21D;63746;45.402;37.922;2023-08-01T02:56:32;24.32;57.67
75164;HTU21D;63746;45.402;37.922;2023-08-01T02:58:58;24.31;57.69
75164;HTU21D;63746;45.402;37.922;2023-08-01T03:01:24;24.31;57.68
75164;HTU21D;63746;45.402;37.922;2023-08-01T03:03:50;24.30;57.71
75164;HTU21D;63746;45.402;37.922;2023-08-01T03:06:16;24.28;57.73
75164;HTU21D;63746;45.402;37.922;2023-08-01T03:08:42;24.29;57.75
75164;HTU21D;63746;45.402;37.922;2023-08-01T03:11:08;24.30;57.74
75164;HTU21D;63746;45.402;37.922;2023-08-01T03:13:34;24.29;57.73
75164;HTU21D;63746;45.402;37.922;2023-08-01T03:16:00;24.29;57.74
75164;HTU21D;63746;45.402;37.922;2023-08-01T03:18:26;24.28;57.72
75164;HTU21D;63746;45.402;37.922;2023-08-01T03:20:52;24.28;57.75
75164;HTU21D;63746;45.402;37.922;2023-08-01T03:23:18;24.26;57.73
75164;HTU21D;63746;45.402;37.922;2023-08-01T03:25:44;24.26;57.73
75164;HTU21D;63746;45.402;37.922;2023-08-01T03:28:10;24.25;57.74
75164;HTU21D;63746;45.402;37.922;2023-08-01T03:30:36;24.21;57.75
75164;HTU21D;63746;45.402;37.922;2023-08-01T03:33:03;24.21;57.80
75164;HTU21D;63746;45.402;37.922;2023-08-01T03:35:29;24.23;57.81
75164;HTU21D;63746;45.402;37.922;2023-08-01T03:37:55;24.23;57.83
75164;HTU21D;63746;45.402;37.922;2023-08-01T03:40:21;24.24;57.84
75164;HTU21D;63746;45.402;37.922;2023-08-01T03:42:47;24.23;57.83
75164;HTU21D;63746;45.402;37.922;2023-08-01T03:45:13;24.24;57.84
75164;HTU21D;63746;45.402;37.922;2023-08-01T03:47:39;24.25;57.82
75164;HTU21D;63746;45.402;37.922;2023-08-01T03:50:05;24.24;57.84
75164;HTU21D;63746;45.402;37.922;2023-08-01T03:52:31;24.24;57.84
75164;HTU21D;63746;45.402;37.922;2023-08-01T03:54:57;24.26;57.87
75164;HTU21D;63746;45.402;37.922;2023-08-01T03:57:23;24.27;57.90
75164;HTU21D;63746;45.402;37.922;2023-08-01T03:59:49;24.30;57.90
75164;HTU21D;63746;45.402;37.922;2023-08-01T04:02:15;24.33;57.90
75164;HTU21D;63746;45.402;37.922;2023-08-01T04:04:42;24.36;57.89
75164;HTU21D;63746;45.402;37.922;2023-08-01T04:07:09;24.38;57.90
75164;HTU21D;63746;45.402;37.922;2023-08-01T04:09:35;24.41;57.89
75164;HTU21D;63746;45.402;37.922;2023-08-01T04:12:01;24.43;57.87
75164;HTU21D;63746;45.402;37.922;2023-08-01T04:14:29;24.47;57.90
75164;HTU21D;63746;45.402;37.922;2023-08-01T04:16:55;24.49;57.86
75164;HTU21D;63746;45.402;37.922;2023-08-01T04:19:21;24.51;57.87
75164;HTU21D;63746;45.402;37.922;2023-08-01T04:21:47;24.56;57.88
75164;HTU21D;63746;45.402;37.922;2023-08-01T04:24:13;24.60;57.86
75164;HTU21D;63746;45.402;37.922;2023-08-01T04:26:39;24.63;57.86
75164;HTU21D;63746;45.402;37.922;2023-08-01T04:29:05;24.66;57.86
75164;HTU21D;63746;45.402;37.922;2023-08-01T04:31:31;24.70;57.84
75164;HTU21D;63746;45.402;37.922;2023-08-01T04:33:57;24.74;57.83
75164;HTU21D;63746;45.402;37.922;2023-08-01T04:36:23;24.77;57.79
75164;HTU21D;63746;45.402;37.922;2023-08-01T04:38:49;24.80;57.79
75164;HTU21D;63746;45.402;37.922;2023-08-01T04:41:15;24.82;57.76
75164;HTU21D;63746;45.402;37.922;2023-08-01T04:43:41;24.83;57.75
75164;HTU21D;63746;45.402;37.922;2023-08-01T04:46:07;24.86;57.79
75164;HTU21D;63746;45.402;37.922;2023-08-01T04:48:33;24.90;57.79
75164;HTU21D;63746;45.402;37.922;2023-08-01T04:50:59;24.94;57.80
75164;HTU21D;63746;45.402;37.922;2023-08-01T04:53:25;24.99;57.82
75164;HTU21D;63746;45.402;37.922;2023-08-01T04:55:51;25.05;57.82
75164;HTU21D;63746;45.402;37.922;2023-08-01T04:58:17;25.12;57.82
75164;HTU21D;63746;45.402;37.922;2023-08-01T05:00:43;25.17;57.77
75164;HTU21D;63746;45.402;37.922;2023-08-01T05:03:09;25.21;57.72
75164;HTU21D;63746;45.402;37.922;2023-08-01T05:05:35;25.27;57.67
75164;HTU21D;63746;45.402;37.922;2023-08-01T05:08:01;25.31;57.68
75164;HTU21D;63746;45.402;37.922;2023-08-01T05:10:27;25.36;57.67
75164;HTU21D;63746;45.402;37.922;2023-08-01T05:12:53;25.40;57.64
75164;HTU21D;63746;45.402;37.922;2023-08-01T05:15:19;25.46;57.68
75164;HTU21D;63746;45.402;37.922;2023-08-01T05:17:45;25.56;57.71
75164;HTU21D;63746;45.402;37.922;2023-08-01T05:20:11;25.62;57.64
75164;HTU21D;63746;45.402;37.922;2023-08-01T05:22:37;25.67;57.60
75164;HTU21D;63746;45.402;37.922;2023-08-01T05:25:03;25.74;57.58
75164;HTU21D;63746;45.402;37.922;2023-08-01T05:27:30;25.82;57.60
75164;HTU21D;63746;45.402;37.922;2023-08-01T05:29:56;25.89;57.56
75164;HTU21D;63746;45.402;37.922;2023-08-01T05:32:22;25.95;57.51
75164;HTU21D;63746;45.402;37.922;2023-08-01T05:34:48;25.99;57.46
75164;HTU21D;63746;45.402;37.922;2023-08-01T05:37:14;26.06;57.43
75164;HTU21D;63746;45.402;37.922;2023-08-01T05:39:40;26.10;57.40
75164;HTU21D;63746;45.402;37.922;2023-08-01T05:42:06;26.15;57.37
75164;HTU21D;63746;45.402;37.922;2023-08-01T05:44:35;26.17;57.32
75164;HTU21D;63746;45.402;37.922;2023-08-01T05:47:01;26.23;57.35
75164;HTU21D;63746;45.402;37.922;2023-08-01T05:49:27;26.28;57.36
75164;HTU21D;63746;45.402;37.922;2023-08-01T05:51:55;26.34;57.33
75164;HTU21D;63746;45.402;37.922;2023-08-01T05:54:21;26.39;57.29
75164;HTU21D;63746;45.402;37.922;2023-08-01T05:56:47;26.45;57.24
75164;HTU21D;63746;45.402;37.922;2023-08-01T05:59:13;26.50;57.26
75164;HTU21D;63746;45.402;37.922;2023-08-01T06:01:39;26.56;57.27
75164;HTU21D;63746;45.402;37.922;2023-08-01T06:04:05;26.66;57.30
75164;HTU21D;63746;45.402;37.922;2023-08-01T06:06:32;26.76;57.30
75164;HTU21D;63746;45.402;37.922;2023-08-01T06:08:58;26.89;57.26
75164;HTU21D;63746;45.402;37.922;2023-08-01T06:11:24;26.99;57.21
75164;HTU21D;63746;45.402;37.922;2023-08-01T06:13:50;27.10;57.11
75164;HTU21D;63746;45.402;37.922;2023-08-01T06:16:16;27.22;57.09
75164;HTU21D;63746;45.402;37.922;2023-08-01T06:18:42;27.36;57.04
75164;HTU21D;63746;45.402;37.922;2023-08-01T06:21:08;27.46;56.93
75164;HTU21D;63746;45.402;37.922;2023-08-01T06:23:33;27.56;56.87
75164;HTU21D;63746;45.402;37.922;2023-08-01T06:25:59;27.66;56.84
75164;HTU21D;63746;45.402;37.922;2023-08-01T06:28:26;27.73;56.72
75164;HTU21D;63746;45.402;37.922;2023-08-01T06:30:52;27.80;56.65
75164;HTU21D;63746;45.402;37.922;2023-08-01T06:33:18;27.84;56.58
75164;HTU21D;63746;45.402;37.922;2023-08-01T06:35:44;27.88;56.58
75164;HTU21D;63746;45.402;37.922;2023-08-01T06:38:10;27.94;56.58
75164;HTU21D;63746;45.402;37.922;2023-08-01T06:40:35;28.02;56.61
75164;HTU21D;63746;45.402;37.922;2023-08-01T06:43:02;28.08;56.53
75164;HTU21D;63746;45.402;37.922;2023-08-01T06:45:28;28.15;56.53
75164;HTU21D;63746;45.402;37.922;2023-08-01T06:47:54;28.23;56.54
75164;HTU21D;63746;45.402;37.922;2023-08-01T06:50:20;28.29;56.48
75164;HTU21D;63746;45.402;37.922;2023-08-01T06:52:46;28.37;56.45
75164;HTU21D;63746;45.402;37.922;2023-08-01T06:55:12;28.44;56.47
75164;HTU21D;63746;45.402;37.922;2023-08-01T06:57:38;28.54;56.45
75164;HTU21D;63746;45.402;37.922;2023-08-01T07:00:04;28.64;56.38
75164;HTU21D;63746;45.402;37.922;2023-08-01T07:02:30;28.74;56.38
75164;HTU21D;63746;45.402;37.922;2023-08-01T07:04:56;28.84;56.34
75164;HTU21D;63746;45.402;37.922;2023-08-01T07:07:22;28.97;56.29
75164;HTU21D;63746;45.402;37.922;2023-08-01T07:09:48;29.08;56.16
75164;HTU21D;63746;45.402;37.922;2023-08-01T07:12:14;29.15;56.03
75164;HTU21D;63746;45.402;37.922;2023-08-01T07:14:40;29.21;55.97
75164;HTU21D;63746;45.402;37.922;2023-08-01T07:17:06;29.27;55.98
75164;HTU21D;63746;45.402;37.922;2023-08-01T07:19:32;29.34;55.95
75164;HTU21D;63746;45.402;37.922;2023-08-01T07:21:58;29.45;55.92
75164;HTU21D;63746;45.402;37.922;2023-08-01T07:24:24;29.53;55.90
75164;HTU21D;63746;45.402;37.922;2023-08-01T07:26:50;29.65;55.84
75164;HTU21D;63746;45.402;37.922;2023-08-01T07:29:16;29.73;55.79
75164;HTU21D;63746;45.402;37.922;2023-08-01T07:31:42;29.85;55.71
75164;HTU21D;63746;45.402;37.922;2023-08-01T07:34:08;29.94;55.65
75164;HTU21D;63746;45.402;37.922;2023-08-01T07:36:34;30.01;55.59
75164;HTU21D;63746;45.402;37.922;2023-08-01T07:39:00;30.12;55.52
75164;HTU21D;63746;45.402;37.922;2023-08-01T07:41:27;30.19;55.45
75164;HTU21D;63746;45.402;37.922;2023-08-01T07:43:53;30.26;55.39
75164;HTU21D;63746;45.402;37.922;2023-08-01T07:46:19;30.34;55.36
75164;HTU21D;63746;45.402;37.922;2023-08-01T07:48:45;30.40;55.31
75164;HTU21D;63746;45.402;37.922;2023-08-01T07:51:11;30.47;55.24
75164;HTU21D;63746;45.402;37.922;2023-08-01T07:53:37;30.53;55.23
75164;HTU21D;63746;45.402;37.922;2023-08-01T07:56:03;30.61;55.17
75164;HTU21D;63746;45.402;37.922;2023-08-01T07:58:32;30.68;55.15
75164;HTU21D;63746;45.402;37.922;2023-08-01T08:01:03;30.76;55.07
75164;HTU21D;63746;45.402;37.922;2023-08-01T08:03:29;30.84;55.06
75164;HTU21D;63746;45.402;37.922;2023-08-01T08:05:55;30.93;55.04
75164;HTU21D;63746;45.402;37.922;2023-08-01T08:08:21;31.00;54.94
75164;HTU21D;63746;45.402;37.922;2023-08-01T08:10:47;31.05;54.88
75164;HTU21D;63746;45.402;37.922;2023-08-01T08:13:13;31.11;54.86
75164;HTU21D;63746;45.402;37.922;2023-08-01T08:15:39;31.18;54.82
75164;HTU21D;63746;45.402;37.922;2023-08-01T08:18:05;31.22;54.71
75164;HTU21D;63746;45.402;37.922;2023-08-01T08:20:39;31.21;54.67
75164;HTU21D;63746;45.402;37.922;2023-08-01T08:23:05;31.22;54.69
75164;HTU21D;63746;45.402;37.922;2023-08-01T08:25:31;31.25;54.75
75164;HTU21D;63746;45.402;37.922;2023-08-01T08:27:57;31.26;54.68
75164;HTU21D;63746;45.402;37.922;2023-08-01T08:30:23;31.24;54.66
75164;HTU21D;63746;45.402;37.922;2023-08-01T08:32:50;31.27;54.71
75164;HTU21D;63746;45.402;37.922;2023-08-01T08:35:16;31.29;54.75
75164;HTU21D;63746;45.402;37.922;2023-08-01T08:37:42;31.37;54.78
75164;HTU21D;63746;45.402;37.922;2023-08-01T08:40:08;31.46;54.78
75164;HTU21D;63746;45.402;37.922;2023-08-01T08:42:34;31.55;54.72
75164;HTU21D;63746;45.402;37.922;2023-08-01T08:45:04;31.64;54.68
75164;HTU21D;63746;45.402;37.922;2023-08-01T08:47:35;31.72;54.56
75164;HTU21D;63746;45.402;37.922;2023-08-01T08:50:02;31.76;54.47
75164;HTU21D;63746;45.402;37.922;2023-08-01T08:52:29;31.81;54.45
75164;HTU21D;63746;45.402;37.922;2023-08-01T08:54:56;31.86;54.46
75164;HTU21D;63746;45.402;37.922;2023-08-01T08:57:22;31.93;54.40
75164;HTU21D;63746;45.402;37.922;2023-08-01T08:59:50;31.95;54.29
75164;HTU21D;63746;45.402;37.922;2023-08-01T09:02:17;31.95;54.29
75164;HTU21D;63746;45.402;37.922;2023-08-01T09:04:44;31.99;54.27
75164;HTU21D;63746;45.402;37.922;2023-08-01T09:07:10;32.00;54.23
75164;HTU21D;63746;45.402;37.922;2023-08-01T09:09:39;32.01;54.27
75164;HTU21D;63746;45.402;37.922;2023-08-01T09:12:05;32.07;54.28
75164;HTU21D;63746;45.402;37.922;2023-08-01T09:14:32;32.13;54.29
75164;HTU21D;63746;45.402;37.922;2023-08-01T09:17:10;32.22;54.11
75164;HTU21D;63746;45.402;37.922;2023-08-01T09:19:37;32.29;54.21
75164;HTU21D;63746;45.402;37.922;2023-08-01T09:22:10;32.37;54.07
75164;HTU21D;63746;45.402;37.922;2023-08-01T09:24:36;32.47;54.12
75164;HTU21D;63746;45.402;37.922;2023-08-01T09:27:03;32.56;54.06
75164;HTU21D;63746;45.402;37.922;2023-08-01T09:29:30;32.64;53.96
75164;HTU21D;63746;45.402;37.922;2023-08-01T09:31:58;32.71;53.88
75164;HTU21D;63746;45.402;37.922;2023-08-01T09:34:26;32.77;53.81
75164;HTU21D;63746;45.402;37.922;2023-08-01T09:37:01;32.82;53.60
75164;HTU21D;63746;45.402;37.922;2023-08-01T09:39:28;32.84;53.69
75164;HTU21D;63746;45.402;37.922;2023-08-01T09:42:02;32.87;53.58
75164;HTU21D;63746;45.402;37.922;2023-08-01T09:44:29;32.91;53.65
75164;HTU21D;63746;45.402;37.922;2023-08-01T09:47:00;32.96;53.59
75164;HTU21D;63746;45.402;37.922;2023-08-01T09:49:30;33.00;53.62
75164;HTU21D;63746;45.402;37.922;2023-08-01T09:51:57;33.07;53.58
75164;HTU21D;63746;45.402;37.922;2023-08-01T09:54:23;33.14;53.53
75164;HTU21D;63746;45.402;37.922;2023-08-01T09:56:51;33.20;53.48
75164;HTU21D;63746;45.402;37.922;2023-08-01T09:59:22;33.25;53.34
75164;HTU21D;63746;45.402;37.922;2023-08-01T10:01:49;33.31;53.39
75164;HTU21D;63746;45.402;37.922;2023-08-01T10:04:27;33.36;53.21
75164;HTU21D;63746;45.402;37.922;2023-08-01T10:06:58;33.41;53.21
75164;HTU21D;63746;45.402;37.922;2023-08-01T10:09:25;33.42;53.26
75164;HTU21D;63746;45.402;37.922;2023-08-01T10:11:51;33.41;53.23
75164;HTU21D;63746;45.402;37.922;2023-08-01T10:14:20;33.40;53.17
75164;HTU21D;63746;45.402;37.922;2023-08-01T10:16:46;33.37;53.20
75164;HTU21D;63746;45.402;37.922;2023-08-01T10:19:13;33.40;53.27
75164;HTU21D;63746;45.402;37.922;2023-08-01T10:21:41;33.44;53.25
75164;HTU21D;63746;45.402;37.922;2023-08-01T10:24:08;33.49;53.26
75164;HTU21D;63746;45.402;37.922;2023-08-01T10:26:35;33.56;53.20
75164;HTU21D;63746;45.402;37.922;2023-08-01T10:29:01;33.59;53.17
75164;HTU21D;63746;45.402;37.922;2023-08-01T10:31:28;33.62;53.07
75164;HTU21D;63746;45.402;37.922;2023-08-01T10:34:04;33.62;52.83
75164;HTU21D;63746;45.402;37.922;2023-08-01T10:36:31;33.64;53.03
75164;HTU21D;63746;45.402;37.922;2023-08-01T10:39:00;33.67;53.01
75164;HTU21D;63746;45.402;37.922;2023-08-01T10:41:33;33.68;52.82
75164;HTU21D;63746;45.402;37.922;2023-08-01T10:44:15;33.68;52.81
75164;HTU21D;63746;45.402;37.922;2023-08-01T10:49:17;33.65;52.95
75164;HTU21D;63746;45.402;37.922;2023-08-01T10:51:44;33.66;52.95
75164;HTU21D;63746;45.402;37.922;2023-08-01T10:54:23;33.66;52.69
75164;HTU21D;63746;45.402;37.922;2023-08-01T10:56:52;33.68;52.94
75164;HTU21D;63746;45.402;37.922;2023-08-01T10:59:19;33.72;52.97
75164;HTU21D;63746;45.402;37.922;2023-08-01T11:01:49;33.75;52.88
75164;HTU21D;63746;45.402;37.922;2023-08-01T11:04:25;33.80;52.69
75164;HTU21D;63746;45.402;37.922;2023-08-01T11:06:52;33.83;52.83
75164;HTU21D;63746;45.402;37.922;2023-08-01T11:09:20;33.86;51.56
75164;HTU21D;63746;45.402;37.922;2023-08-01T11:11:47;33.85;51.35
75164;HTU21D;63746;45.402;37.922;2023-08-01T11:14:14;33.81;52.81
75164;HTU21D;63746;45.402;37.922;2023-08-01T11:16:40;33.79;52.78
75164;HTU21D;63746;45.402;37.922;2023-08-01T11:19:06;33.78;52.84
75164;HTU21D;63746;45.402;37.922;2023-08-01T11:21:42;33.77;52.80
75164;HTU21D;63746;45.402;37.922;2023-08-01T11:24:08;33.74;52.76
75164;HTU21D;63746;45.402;37.922;2023-08-01T11:26:34;33.71;52.78
75164;HTU21D;63746;45.402;37.922;2023-08-01T11:29:03;33.70;52.75
75164;HTU21D;63746;45.402;37.922;2023-08-01T11:31:29;33.71;52.83
75164;HTU21D;63746;45.402;37.922;2023-08-01T11:33:57;33.72;52.77
75164;HTU21D;63746;45.402;37.922;2023-08-01T11:36:26;33.71;52.71
75164;HTU21D;63746;45.402;37.922;2023-08-01T11:38:53;33.71;52.79
75164;HTU21D;63746;45.402;37.922;2023-08-01T11:41:20;33.73;52.75
75164;HTU21D;63746;45.402;37.922;2023-08-01T11:43:46;33.74;52.72
75164;HTU21D;63746;45.402;37.922;2023-08-01T11:46:12;33.73;52.72
75164;HTU21D;63746;45.402;37.922;2023-08-01T11:48:38;33.73;52.69
75164;HTU21D;63746;45.402;37.922;2023-08-01T11:51:04;33.72;52.69
75164;HTU21D;63746;45.402;37.922;2023-08-01T11:53:30;33.73;52.69
75164;HTU21D;63746;45.402;37.922;2023-08-01T11:56:03;33.70;52.68
75164;HTU21D;63746;45.402;37.922;2023-08-01T11:58:30;33.71;52.65
75164;HTU21D;63746;45.402;37.922;2023-08-01T12:01:11;33.71;52.41
75164;HTU21D;63746;45.402;37.922;2023-08-01T12:06:14;33.71;52.62
75164;HTU21D;63746;45.402;37.922;2023-08-01T12:08:44;33.70;52.53
75164;HTU21D;63746;45.402;37.922;2023-08-01T12:11:24;33.65;52.23
75164;HTU21D;63746;45.402;37.922;2023-08-01T12:14:02;33.60;52.31
75164;HTU21D;63746;45.402;37.922;2023-08-01T12:16:28;33.56;52.63
75164;HTU21D;63746;45.402;37.922;2023-08-01T12:18:54;33.51;52.67
75164;HTU21D;63746;45.402;37.922;2023-08-01T12:21:20;33.47;52.65
75164;HTU21D;63746;45.402;37.922;2023-08-01T12:23:46;33.44;52.72
75164;HTU21D;63746;45.402;37.922;2023-08-01T12:26:13;33.43;52.74
75164;HTU21D;63746;45.402;37.922;2023-08-01T12:28:39;33.42;52.73
75164;HTU21D;63746;45.402;37.922;2023-08-01T12:31:05;33.40;52.72
75164;HTU21D;63746;45.402;37.922;2023-08-01T12:33:32;33.38;52.71
75164;HTU21D;63746;45.402;37.922;2023-08-01T12:36:02;33.37;52.62
75164;HTU21D;63746;45.402;37.922;2023-08-01T12:38:29;33.35;52.69
75164;HTU21D;63746;45.402;37.922;2023-08-01T12:40:55;33.33;52.74
75164;HTU21D;63746;45.402;37.922;2023-08-01T12:43:21;33.32;52.74
75164;HTU21D;63746;45.402;37.922;2023-08-01T12:45:48;33.33;52.76
75164;HTU21D;63746;45.402;37.922;2023-08-01T12:48:14;33.33;52.73
75164;HTU21D;63746;45.402;37.922;2023-08-01T12:50:46;33.32;52.60
75164;HTU21D;63746;45.402;37.922;2023-08-01T12:53:13;33.30;52.69
75164;HTU21D;63746;45.402;37.922;2023-08-01T12:55:44;33.26;52.61
75164;HTU21D;63746;45.402;37.922;2023-08-01T12:58:13;33.22;52.69
75164;HTU21D;63746;45.402;37.922;2023-08-01T13:00:43;33.18;52.61
75164;HTU21D;63746;45.402;37.922;2023-08-01T13:03:09;33.16;52.72
75164;HTU21D;63746;45.402;37.922;2023-08-01T13:05:39;33.12;52.72
75164;HTU21D;63746;45.402;37.922;2023-08-01T13:08:06;33.08;52.75
75164;HTU21D;63746;45.402;37.922;2023-08-01T13:10:33;33.06;52.76
75164;HTU21D;63746;45.402;37.922;2023-08-01T13:12:59;33.03;52.81
75164;HTU21D;63746;45.402;37.922;2023-08-01T13:15:26;33.02;52.82
75164;HTU21D;63746;45.402;37.922;2023-08-01T13:17:53;33.01;52.79
75164;HTU21D;63746;45.402;37.922;2023-08-01T13:20:19;32.99;52.77
75164;HTU21D;63746;45.402;37.922;2023-08-01T13:22:46;32.94;52.80
75164;HTU21D;63746;45.402;37.922;2023-08-01T13:25:13;32.91;52.82
75164;HTU21D;63746;45.402;37.922;2023-08-01T13:27:40;32.89;52.85
75164;HTU21D;63746;45.402;37.922;2023-08-01T13:30:06;32.87;52.85
75164;HTU21D;63746;45.402;37.922;2023-08-01T13:32:33;32.85;52.82
75164;HTU21D;63746;45.402;37.922;2023-08-01T13:35:00;32.78;52.81
75164;HTU21D;63746;45.402;37.922;2023-08-01T13:37:26;32.73;52.84
75164;HTU21D;63746;45.402;37.922;2023-08-01T13:39:56;32.67;52.93
75164;HTU21D;63746;45.402;37.922;2023-08-01T13:42:22;32.62;52.96
75164;HTU21D;63746;45.402;37.922;2023-08-01T13:44:48;32.59;53.01
75164;HTU21D;63746;45.402;37.922;2023-08-01T13:47:14;32.57;53.01
75164;HTU21D;63746;45.402;37.922;2023-08-01T13:49:40;32.53;52.98
75164;HTU21D;63746;45.402;37.922;2023-08-01T13:52:06;32.46;53.03
75164;HTU21D;63746;45.402;37.922;2023-08-01T13:54:32;32.42;53.05
75164;HTU21D;63746;45.402;37.922;2023-08-01T13:56:59;32.38;53.06
75164;HTU21D;63746;45.402;37.922;2023-08-01T13:59:25;32.32;53.10
75164;HTU21D;63746;45.402;37.922;2023-08-01T14:01:52;32.28;53.10
75164;HTU21D;63746;45.402;37.922;2023-08-01T14:04:18;32.22;53.13
75164;HTU21D;63746;45.402;37.922;2023-08-01T14:06:44;32.16;53.14
75164;HTU21D;63746;45.402;37.922;2023-08-01T14:09:10;32.11;53.17
75164;HTU21D;63746;45.402;37.922;2023-08-01T14:11:37;32.07;53.19
75164;HTU21D;63746;45.402;37.922;2023-08-01T14:14:03;32.00;53.22
75164;HTU21D;63746;45.402;37.922;2023-08-01T14:16:29;31.96;53.27
75164;HTU21D;63746;45.402;37.922;2023-08-01T14:18:57;31.92;53.29
75164;HTU21D;63746;45.402;37.922;2023-08-01T14:21:23;31.90;53.32
75164;HTU21D;63746;45.402;37.922;2023-08-01T14:23:49;31.86;53.31
75164;HTU21D;63746;45.402;37.922;2023-08-01T14:26:16;31.83;53.33
75164;HTU21D;63746;45.402;37.922;2023-08-01T14:28:42;31.79;53.34
75164;HTU21D;63746;45.402;37.922;2023-08-01T14:31:08;31.75;53.36
75164;HTU21D;63746;45.402;37.922;2023-08-01T14:33:35;31.71;53.36
75164;HTU21D;63746;45.402;37.922;2023-08-01T14:36:01;31.67;53.38
75164;HTU21D;63746;45.402;37.922;2023-08-01T14:38:27;31.63;53.39
75164;HTU21D;63746;45.402;37.922;2023-08-01T14:40:53;31.57;53.40
75164;HTU21D;63746;45.402;37.922;2023-08-01T14:43:19;31.55;53.43
75164;HTU21D;63746;45.402;37.922;2023-08-01T14:45:46;31.51;53.43
75164;HTU21D;63746;45.402;37.922;2023-08-01T14:48:12;31.43;53.42
75164;HTU21D;63746;45.402;37.922;2023-08-01T14:50:38;31.36;53.43
75164;HTU21D;63746;45.402;37.922;2023-08-01T14:53:04;31.28;53.46
75164;HTU21D;63746;45.402;37.922;2023-08-01T14:55:32;31.21;53.49
75164;HTU21D;63746;45.402;37.922;2023-08-01T14:57:59;31.13;53.56
75164;HTU21D;63746;45.402;37.922;2023-08-01T15:00:25;31.07;53.61
75164;HTU21D;63746;45.402;37.922;2023-08-01T15:02:51;31.01;53.68
75164;HTU21D;63746;45.402;37.922;2023-08-01T15:05:17;30.98;53.71